createdAt,value
2018-07-31T00:02:24.248Z,4.50
2018-07-31T00:04:51.816Z,4.10
2018-07-31T00:07:19.484Z,4.03
2018-07-31T00:09:47.089Z,4.20
2018-07-31T00:12:14.674Z,3.93
2018-07-31T00:14:42.255Z,3.83
2018-07-31T00:17:09.861Z,3.90
2018-07-31T00:19:37.405Z,4.33
2018-07-31T00:22:04.991Z,4.10
2018-07-31T00:24:32.613Z,4.27
2018-07-31T00:27:00.179Z,4.23
2018-07-31T00:29:27.944Z,4.20
2018-07-31T00:31:55.516Z,4.30
2018-07-31T00:34:23.094Z,3.97
2018-07-31T00:36:50.760Z,3.97
2018-07-31T00:39:18.333Z,3.90
2018-07-31T00:41:45.937Z,4.07
2018-07-31T00:44:13.546Z,3.73
2018-07-31T00:46:41.141Z,3.80
2018-07-31T00:49:08.705Z,3.67
2018-07-31T00:51:36.288Z,3.53
2018-07-31T00:54:03.913Z,4.10
2018-07-31T00:56:31.745Z,4.17
2018-07-31T00:58:59.300Z,3.83
2018-07-31T01:01:26.941Z,4.00
2018-07-31T01:03:54.547Z,4.67
2018-07-31T01:06:26.154Z,4.57
2018-07-31T01:08:53.756Z,4.40
2018-07-31T01:11:21.448Z,3.63
2018-07-31T01:13:49.315Z,4.03
2018-07-31T01:16:16.884Z,4.00
2018-07-31T01:18:44.483Z,4.20
2018-07-31T01:21:12.341Z,3.93
2018-07-31T01:23:39.958Z,3.73
2018-07-31T01:26:07.552Z,4.27
2018-07-31T01:28:35.145Z,4.37
2018-07-31T01:31:02.753Z,4.20
2018-07-31T01:33:30.361Z,4.40
2018-07-31T01:35:57.916Z,3.63
2018-07-31T01:38:25.548Z,4.27
2018-07-31T01:40:53.134Z,4.20
2018-07-31T01:43:20.696Z,4.20
2018-07-31T01:45:48.341Z,4.27
2018-07-31T01:48:15.913Z,3.97
2018-07-31T01:50:43.494Z,4.33
2018-07-31T01:53:11.033Z,3.73
2018-07-31T01:55:38.580Z,4.03
2018-07-31T01:58:06.177Z,4.27
2018-07-31T02:00:33.740Z,4.00
2018-07-31T02:03:01.284Z,4.10
2018-07-31T02:05:28.895Z,3.90
2018-07-31T02:07:56.463Z,4.13
2018-07-31T02:10:24.033Z,4.10
2018-07-31T02:12:51.614Z,3.80
2018-07-31T02:15:19.157Z,4.10
2018-07-31T02:17:46.741Z,4.47
2018-07-31T02:20:14.299Z,4.00
2018-07-31T02:22:41.827Z,3.83
2018-07-31T02:25:09.541Z,4.00
2018-07-31T02:27:37.110Z,3.80
2018-07-31T02:30:08.331Z,4.13
2018-07-31T02:32:36.957Z,4.30
2018-07-31T02:35:04.722Z,3.80
2018-07-31T02:37:32.397Z,4.07
2018-07-31T02:40:00.000Z,3.97
2018-07-31T02:42:27.575Z,4.20
2018-07-31T02:44:55.132Z,4.03
2018-07-31T02:47:22.885Z,3.45
2018-07-31T02:49:50.431Z,3.80
2018-07-31T02:52:17.985Z,3.80
2018-07-31T02:54:45.573Z,4.30
2018-07-31T02:57:13.128Z,4.07
2018-07-31T02:59:40.959Z,4.40
2018-07-31T03:02:08.537Z,4.23
2018-07-31T03:04:36.098Z,4.47
2018-07-31T03:07:03.761Z,3.97
2018-07-31T03:09:31.361Z,4.00
2018-07-31T03:11:58.957Z,4.13
2018-07-31T03:14:26.504Z,4.00
2018-07-31T03:16:54.109Z,4.20
2018-07-31T03:19:21.681Z,4.10
2018-07-31T03:21:49.298Z,4.37
2018-07-31T03:24:16.860Z,4.27
2018-07-31T03:26:44.424Z,3.63
2018-07-31T03:29:12.108Z,3.80
2018-07-31T03:31:39.654Z,4.00
2018-07-31T03:34:07.248Z,3.87
2018-07-31T03:36:34.825Z,3.73
2018-07-31T03:39:02.573Z,3.70
2018-07-31T03:41:30.281Z,4.07
2018-07-31T03:43:57.870Z,4.40
2018-07-31T03:46:25.444Z,3.53
2018-07-31T03:48:53.480Z,4.13
2018-07-31T03:51:21.030Z,4.77
2018-07-31T03:53:48.601Z,4.10
2018-07-31T03:56:16.240Z,4.30
2018-07-31T03:58:43.794Z,4.27
2018-07-31T04:01:11.388Z,3.97
2018-07-31T04:03:38.959Z,4.30
2018-07-31T04:06:06.909Z,3.70
2018-07-31T04:08:34.497Z,4.27
2018-07-31T04:11:02.084Z,3.70
2018-07-31T04:13:29.691Z,4.17
2018-07-31T04:15:57.282Z,4.20
2018-07-31T04:18:24.844Z,4.23
2018-07-31T04:20:52.456Z,4.10
2018-07-31T04:23:20.034Z,4.37
2018-07-31T04:25:47.599Z,4.40
2018-07-31T04:28:15.170Z,4.40
2018-07-31T04:30:42.752Z,4.47
2018-07-31T04:33:10.344Z,3.87
2018-07-31T04:35:37.920Z,4.00
2018-07-31T04:38:05.652Z,4.40
2018-07-31T04:40:33.233Z,4.40
2018-07-31T04:43:00.843Z,4.40
2018-07-31T04:45:28.432Z,4.27
2018-07-31T04:47:55.993Z,4.00
2018-07-31T04:50:23.552Z,4.40
2018-07-31T04:52:51.413Z,4.43
2018-07-31T04:55:18.988Z,4.60
2018-07-31T04:57:46.548Z,4.00
2018-07-31T05:00:14.148Z,4.00
2018-07-31T05:02:41.711Z,4.00
2018-07-31T05:05:09.256Z,4.50
2018-07-31T05:07:37.539Z,4.67
2018-07-31T05:10:07.012Z,4.37
2018-07-31T05:12:34.930Z,4.23
2018-07-31T05:15:02.595Z,4.07
2018-07-31T05:17:30.229Z,4.57
2018-07-31T05:19:57.973Z,5.00
2018-07-31T05:22:25.564Z,4.43
2018-07-31T05:24:53.213Z,4.50
2018-07-31T05:27:20.757Z,5.10
2018-07-31T05:29:48.301Z,5.03
2018-07-31T05:32:15.900Z,5.00
2018-07-31T05:34:43.429Z,4.90
2018-07-31T05:37:11.038Z,4.10
2018-07-31T05:39:38.958Z,4.67
2018-07-31T05:42:06.553Z,4.80
2018-07-31T05:44:34.112Z,4.57
2018-07-31T05:47:01.702Z,4.37
2018-07-31T05:49:29.285Z,4.63
2018-07-31T05:51:56.901Z,4.42
2018-07-31T05:54:24.467Z,3.80
2018-07-31T05:56:52.036Z,4.30
2018-07-31T05:59:19.589Z,3.80
2018-07-31T06:01:47.175Z,3.98
2018-07-31T06:04:14.756Z,4.00
2018-07-31T06:06:42.386Z,4.40
2018-07-31T06:09:09.964Z,4.08
2018-07-31T06:11:38.139Z,3.80
2018-07-31T06:14:06.209Z,3.80
2018-07-31T06:16:33.788Z,3.50
2018-07-31T06:19:01.807Z,3.02
2018-07-31T06:21:29.360Z,4.00
2018-07-31T06:23:56.912Z,4.20
2018-07-31T06:26:24.505Z,4.20
2018-07-31T06:28:52.092Z,3.75
2018-07-31T06:31:19.973Z,4.17
2018-07-31T06:33:47.584Z,3.80
2018-07-31T06:36:15.156Z,3.95
2018-07-31T06:38:42.789Z,4.03
2018-07-31T06:41:10.393Z,3.92
2018-07-31T06:43:38.136Z,3.75
2018-07-31T06:46:10.637Z,3.75
2018-07-31T06:48:38.408Z,3.60
2018-07-31T06:51:05.976Z,3.83
2018-07-31T06:53:33.537Z,4.03
2018-07-31T06:56:01.076Z,4.10
2018-07-31T06:58:28.924Z,3.80
2018-07-31T07:00:56.493Z,3.37
2018-07-31T07:03:24.499Z,3.25
2018-07-31T07:05:52.853Z,3.83
2018-07-31T07:08:20.456Z,3.25
2018-07-31T07:10:48.031Z,3.20
2018-07-31T07:13:15.657Z,4.25
2018-07-31T07:15:43.221Z,3.12
2018-07-31T07:18:10.865Z,3.30
2018-07-31T07:20:38.493Z,2.70
2018-07-31T07:23:06.088Z,3.47
2018-07-31T07:25:33.698Z,2.92
2018-07-31T07:28:01.289Z,3.08
2018-07-31T07:30:28.854Z,2.95
2018-07-31T07:32:56.479Z,3.20
2018-07-31T07:35:24.049Z,3.62
2018-07-31T07:37:51.629Z,3.40
2018-07-31T07:40:19.313Z,2.98
2018-07-31T07:42:46.823Z,3.00
2018-07-31T07:45:14.566Z,3.25
2018-07-31T07:47:42.213Z,2.40
2018-07-31T07:50:09.781Z,2.98
2018-07-31T07:52:37.377Z,2.58
2018-07-31T07:55:04.968Z,2.80
2018-07-31T07:57:32.585Z,2.85
2018-07-31T08:00:00.133Z,2.55
2018-07-31T08:02:27.689Z,3.02
2018-07-31T08:04:55.268Z,2.33
2018-07-31T08:07:22.833Z,2.45
2018-07-31T08:09:50.689Z,2.40
2018-07-31T08:12:18.408Z,2.65
2018-07-31T08:14:45.980Z,2.10
2018-07-31T08:17:13.577Z,2.02
2018-07-31T08:19:41.193Z,2.27
2018-07-31T08:22:08.804Z,1.90
2018-07-31T08:24:36.625Z,2.02
2018-07-31T08:27:04.498Z,2.00
2018-07-31T08:29:32.093Z,1.77
2018-07-31T08:31:59.691Z,1.80
2018-07-31T08:34:27.275Z,2.17
2018-07-31T08:36:54.848Z,2.00
2018-07-31T08:39:22.468Z,1.92
2018-07-31T08:41:50.097Z,1.90
2018-07-31T08:44:17.671Z,2.30
2018-07-31T08:46:45.240Z,2.08
2018-07-31T08:49:12.860Z,2.12
2018-07-31T08:51:40.438Z,1.90
2018-07-31T08:54:08.017Z,1.90
2018-07-31T08:56:35.701Z,2.08
2018-07-31T08:59:03.373Z,1.72
2018-07-31T09:01:31.020Z,1.45
2018-07-31T09:03:58.934Z,1.60
2018-07-31T09:06:26.504Z,1.65
2018-07-31T09:08:54.084Z,1.85
2018-07-31T09:11:21.680Z,1.65
2018-07-31T09:13:49.352Z,1.70
2018-07-31T09:16:16.974Z,2.00
2018-07-31T09:18:44.529Z,1.77
2018-07-31T09:21:12.129Z,1.62
2018-07-31T09:23:39.764Z,1.95
2018-07-31T09:26:07.396Z,1.70
2018-07-31T09:28:34.994Z,2.00
2018-07-31T09:31:08.263Z,1.80
2018-07-31T09:33:35.752Z,2.15
2018-07-31T09:36:03.335Z,2.40
2018-07-31T09:38:30.876Z,1.72
2018-07-31T09:40:58.470Z,1.40
2018-07-31T09:43:26.053Z,1.70
2018-07-31T09:45:53.746Z,1.87
2018-07-31T09:48:21.352Z,1.67
2018-07-31T09:50:48.999Z,1.62
2018-07-31T09:53:16.608Z,2.00
2018-07-31T09:55:44.195Z,1.92
2018-07-31T09:58:11.832Z,1.85
2018-07-31T10:00:45.125Z,1.70
2018-07-31T10:03:12.720Z,2.15
2018-07-31T10:05:40.320Z,2.10
2018-07-31T10:08:07.953Z,1.82
2018-07-31T10:10:35.596Z,1.70
2018-07-31T10:13:03.236Z,1.92
2018-07-31T10:15:30.880Z,1.92
2018-07-31T10:17:58.549Z,2.10
2018-07-31T10:20:25.996Z,1.87
2018-07-31T10:22:53.745Z,1.87
2018-07-31T10:25:21.366Z,1.87
2018-07-31T10:27:49.116Z,1.92
2018-07-31T10:30:16.837Z,1.87
2018-07-31T10:32:44.396Z,2.27
2018-07-31T10:35:12.003Z,1.80
2018-07-31T10:37:39.726Z,2.10
2018-07-31T10:40:07.578Z,1.70
2018-07-31T10:42:35.234Z,1.70
2018-07-31T10:45:02.864Z,2.00
2018-07-31T10:47:30.484Z,1.95
2018-07-31T10:49:58.149Z,1.62
2018-07-31T10:52:26.153Z,1.82
2018-07-31T10:54:53.757Z,1.95
2018-07-31T10:57:21.390Z,2.00
2018-07-31T10:59:49.088Z,1.55
2018-07-31T11:02:16.665Z,1.80
2018-07-31T11:04:44.271Z,1.85
2018-07-31T11:07:12.148Z,1.80
2018-07-31T11:09:39.722Z,1.60
2018-07-31T11:12:07.308Z,2.10
2018-07-31T11:14:34.929Z,2.00
2018-07-31T11:17:02.526Z,1.87
2018-07-31T11:19:30.133Z,1.77
2018-07-31T11:21:57.781Z,1.55
2018-07-31T11:24:25.400Z,1.90
2018-07-31T11:26:53.028Z,1.87
2018-07-31T11:29:20.616Z,1.95
2018-07-31T11:31:48.238Z,1.60
2018-07-31T11:34:15.859Z,2.30
2018-07-31T11:36:43.805Z,1.90
2018-07-31T11:39:11.849Z,2.12
2018-07-31T11:41:39.665Z,1.92
2018-07-31T11:44:07.371Z,1.85
2018-07-31T11:46:35.417Z,1.80
2018-07-31T11:49:03.085Z,1.70
2018-07-31T11:51:30.740Z,2.10
2018-07-31T11:53:58.349Z,1.70
2018-07-31T11:56:26.008Z,2.08
2018-07-31T11:58:53.885Z,2.10
2018-07-31T12:01:21.459Z,1.82
2018-07-31T12:03:49.029Z,1.87
2018-07-31T12:06:16.861Z,1.67
2018-07-31T12:08:44.401Z,2.08
2018-07-31T12:11:11.976Z,1.65
2018-07-31T12:13:39.545Z,1.65
2018-07-31T12:16:07.190Z,2.00
2018-07-31T12:18:34.705Z,1.80
2018-07-31T12:21:02.413Z,1.90
2018-07-31T12:23:30.095Z,1.80
2018-07-31T12:25:57.650Z,1.80
2018-07-31T12:28:25.235Z,1.80
2018-07-31T12:30:52.788Z,1.60
2018-07-31T12:33:20.388Z,1.62
2018-07-31T12:35:48.000Z,1.70
2018-07-31T12:38:15.611Z,2.00
2018-07-31T12:40:43.212Z,1.82
2018-07-31T12:43:10.776Z,1.80
2018-07-31T12:45:38.524Z,2.02
2018-07-31T12:48:06.181Z,1.90
2018-07-31T12:50:33.743Z,1.80
2018-07-31T12:53:01.394Z,1.70
2018-07-31T12:55:28.952Z,2.00
2018-07-31T12:57:56.506Z,1.75
2018-07-31T13:00:24.114Z,2.10
2018-07-31T13:02:51.757Z,1.90
2018-07-31T13:05:19.357Z,2.12
2018-07-31T13:07:47.016Z,1.90
2018-07-31T13:10:14.601Z,1.65
2018-07-31T13:12:42.180Z,1.82
2018-07-31T13:15:09.803Z,1.98
2018-07-31T13:17:37.391Z,1.80
2018-07-31T13:20:05.015Z,2.20
2018-07-31T13:22:32.643Z,1.87
2018-07-31T13:25:00.250Z,1.80
2018-07-31T13:27:27.836Z,1.70
2018-07-31T13:29:55.429Z,1.57
2018-07-31T13:32:23.050Z,2.10
2018-07-31T13:34:50.624Z,1.90
2018-07-31T13:37:18.235Z,1.90
2018-07-31T13:39:45.812Z,1.67
2018-07-31T13:42:13.421Z,1.92
2018-07-31T13:44:41.021Z,1.60
2018-07-31T13:47:08.608Z,1.82
2018-07-31T13:49:36.208Z,1.77
2018-07-31T13:52:03.793Z,1.70
2018-07-31T13:54:31.391Z,1.67
2018-07-31T13:56:59.075Z,1.65
2018-07-31T13:59:26.645Z,1.80
2018-07-31T14:01:54.230Z,1.85
2018-07-31T14:04:21.818Z,1.65
2018-07-31T14:06:49.428Z,1.82
2018-07-31T14:09:17.028Z,1.62
2018-07-31T14:11:44.624Z,1.85
2018-07-31T14:14:12.229Z,1.95
2018-07-31T14:16:40.084Z,2.10
2018-07-31T14:19:07.652Z,2.00
2018-07-31T14:21:35.596Z,1.52
2018-07-31T14:24:04.038Z,1.80
2018-07-31T14:26:31.623Z,1.77
2018-07-31T14:28:59.319Z,1.60
2018-07-31T14:31:27.140Z,1.92
2018-07-31T14:33:54.806Z,1.90
2018-07-31T14:36:22.397Z,1.77
2018-07-31T14:38:50.284Z,1.60
2018-07-31T14:41:17.859Z,1.70
2018-07-31T14:43:45.456Z,1.50
2018-07-31T14:46:13.123Z,1.40
2018-07-31T14:48:40.701Z,1.70
2018-07-31T14:51:08.293Z,1.70
2018-07-31T14:53:36.089Z,2.30
2018-07-31T14:56:03.692Z,1.80
2018-07-31T14:58:31.261Z,1.90
2018-07-31T15:01:00.107Z,1.50
2018-07-31T15:03:27.929Z,1.60
2018-07-31T15:05:55.509Z,1.50
2018-07-31T15:08:23.082Z,1.75
2018-07-31T15:10:50.738Z,1.77
2018-07-31T15:13:18.317Z,1.52
2018-07-31T15:15:45.929Z,1.57
2018-07-31T15:18:13.640Z,1.70
2018-07-31T15:20:42.042Z,1.60
2018-07-31T15:23:09.585Z,1.70
2018-07-31T15:25:37.156Z,1.50
2018-07-31T15:28:04.768Z,1.60
2018-07-31T15:30:34.100Z,1.40
2018-07-31T15:33:01.648Z,1.35
2018-07-31T15:35:29.312Z,1.60
2018-07-31T15:37:56.861Z,1.50
2018-07-31T15:40:24.504Z,1.40
2018-07-31T15:42:52.075Z,1.07
2018-07-31T15:45:20.262Z,1.47
2018-07-31T15:47:47.852Z,1.70
2018-07-31T15:50:15.400Z,1.50
2018-07-31T15:52:42.979Z,1.35
2018-07-31T15:55:10.556Z,1.50
2018-07-31T15:57:38.388Z,1.45
2018-07-31T16:00:08.073Z,1.27
2018-07-31T16:02:35.816Z,1.40
2018-07-31T16:05:04.061Z,1.22
2018-07-31T16:07:32.389Z,1.50
2018-07-31T16:10:00.014Z,0.90
2018-07-31T16:12:27.629Z,1.25
2018-07-31T16:14:55.275Z,1.25
2018-07-31T16:17:22.989Z,1.30
2018-07-31T16:19:51.658Z,1.30
2018-07-31T16:22:19.212Z,1.32
2018-07-31T16:24:47.099Z,1.35
2018-07-31T16:27:14.692Z,1.10
2018-07-31T16:29:42.266Z,1.35
2018-07-31T16:32:10.253Z,1.20
2018-07-31T16:34:37.820Z,1.35
2018-07-31T16:37:06.657Z,1.30
2018-07-31T16:39:34.270Z,1.20
2018-07-31T16:42:01.865Z,1.15
2018-07-31T16:44:29.471Z,1.10
2018-07-31T16:46:57.001Z,1.37
2018-07-31T16:49:26.625Z,1.37
2018-07-31T16:51:54.224Z,1.35
2018-07-31T16:54:21.833Z,1.10
2018-07-31T16:56:49.499Z,1.30
2018-07-31T16:59:17.054Z,1.10
2018-07-31T17:01:44.640Z,1.02
2018-07-31T17:04:12.428Z,1.30
2018-07-31T17:06:42.088Z,1.15
2018-07-31T17:09:09.725Z,1.05
2018-07-31T17:11:37.281Z,1.32
2018-07-31T17:14:05.282Z,1.30
2018-07-31T17:16:32.928Z,1.12
2018-07-31T17:19:00.498Z,1.10
2018-07-31T17:21:28.170Z,1.00
2018-07-31T17:23:56.022Z,1.02
2018-07-31T17:26:23.653Z,1.10
2018-07-31T17:28:52.609Z,1.10
2018-07-31T17:31:20.272Z,1.25
2018-07-31T17:33:47.885Z,1.17
2018-07-31T17:36:15.424Z,1.10
2018-07-31T17:38:43.002Z,1.40
2018-07-31T17:41:10.814Z,1.30
2018-07-31T17:43:38.397Z,1.40
2018-07-31T17:46:06.105Z,1.10
2018-07-31T17:48:33.731Z,0.90
2018-07-31T17:51:01.288Z,1.32
2018-07-31T17:53:29.167Z,1.25
2018-07-31T17:55:57.289Z,1.10
2018-07-31T17:58:24.903Z,1.15
2018-07-31T18:00:52.485Z,1.10
2018-07-31T18:03:26.760Z,1.22
2018-07-31T18:05:54.364Z,1.50
2018-07-31T18:08:21.909Z,1.32
2018-07-31T18:10:49.644Z,1.40
2018-07-31T18:13:17.241Z,1.17
2018-07-31T18:15:52.875Z,1.50
2018-07-31T18:18:20.669Z,1.30
2018-07-31T18:20:48.396Z,1.40
2018-07-31T18:23:16.073Z,1.27
2018-07-31T18:25:45.155Z,1.00
2018-07-31T18:28:24.004Z,1.42
2018-07-31T18:30:51.949Z,1.40
2018-07-31T18:33:29.065Z,1.37
2018-07-31T18:35:57.081Z,1.22
2018-07-31T18:38:24.761Z,1.30
2018-07-31T18:40:52.366Z,1.40
2018-07-31T18:43:20.575Z,1.10
2018-07-31T18:45:48.137Z,1.00
2018-07-31T18:48:15.886Z,1.22
2018-07-31T18:50:43.554Z,1.20
2018-07-31T18:53:11.194Z,1.10
2018-07-31T18:55:38.796Z,1.10
2018-07-31T18:58:06.535Z,1.07
2018-07-31T19:00:34.279Z,1.15
2018-07-31T19:03:01.980Z,1.25
2018-07-31T19:05:29.769Z,0.90
2018-07-31T19:07:57.492Z,1.00
2018-07-31T19:10:25.097Z,1.32
2018-07-31T19:12:52.733Z,1.10
2018-07-31T19:15:20.654Z,1.20
2018-07-31T19:17:48.413Z,1.30
2018-07-31T19:20:16.248Z,1.30
2018-07-31T19:22:43.942Z,1.05
2018-07-31T19:25:11.661Z,1.27
2018-07-31T19:27:39.389Z,1.37
2018-07-31T19:30:07.190Z,1.57
2018-07-31T19:32:34.858Z,1.45
2018-07-31T19:35:02.600Z,1.30
2018-07-31T19:37:30.422Z,1.10
2018-07-31T19:39:58.024Z,1.15
2018-07-31T19:42:25.708Z,1.10
2018-07-31T19:44:53.341Z,1.30
2018-07-31T19:47:20.982Z,1.32
2018-07-31T19:49:48.642Z,1.37
2018-07-31T19:52:16.356Z,1.20
2018-07-31T19:54:44.010Z,1.15
2018-07-31T19:57:11.986Z,1.30
2018-07-31T19:59:39.843Z,1.27
2018-07-31T20:02:07.868Z,1.17
2018-07-31T20:04:35.559Z,1.40
2018-07-31T20:07:03.311Z,1.45
2018-07-31T20:09:30.939Z,1.20
2018-07-31T20:11:58.648Z,1.52
2018-07-31T20:14:26.341Z,1.30
2018-07-31T20:16:54.104Z,1.60
2018-07-31T20:19:28.474Z,1.47
2018-07-31T20:21:56.142Z,1.62
2018-07-31T20:24:23.851Z,1.50
2018-07-31T20:26:51.627Z,1.35
2018-07-31T20:29:19.298Z,1.50
2018-07-31T20:31:46.973Z,1.80
2018-07-31T20:34:14.564Z,1.70
2018-07-31T20:36:42.380Z,1.90
2018-07-31T20:39:10.584Z,1.80
2018-07-31T20:41:39.030Z,2.08
2018-07-31T20:44:07.139Z,1.92
2018-07-31T20:46:34.754Z,2.00
2018-07-31T20:49:02.442Z,2.00
2018-07-31T20:51:30.126Z,2.30
2018-07-31T20:53:59.313Z,1.92
2018-07-31T20:56:28.213Z,2.00
2018-07-31T20:58:55.877Z,2.37
2018-07-31T21:01:23.861Z,2.27
2018-07-31T21:03:51.800Z,2.63
2018-07-31T21:06:19.418Z,2.53
2018-07-31T21:08:47.025Z,2.27
2018-07-31T21:11:15.338Z,2.27
2018-07-31T21:13:43.002Z,2.83
2018-07-31T21:16:10.667Z,2.47
2018-07-31T21:18:38.340Z,2.30
2018-07-31T21:21:06.080Z,2.33
2018-07-31T21:23:34.805Z,3.00
2018-07-31T21:26:02.486Z,2.40
2018-07-31T21:28:32.630Z,2.50
2018-07-31T21:31:00.445Z,2.30
2018-07-31T21:33:28.104Z,2.90
2018-07-31T21:35:55.778Z,2.67
2018-07-31T21:38:23.469Z,2.97
2018-07-31T21:40:51.074Z,3.02
2018-07-31T21:43:19.005Z,2.60
2018-07-31T21:45:46.636Z,2.50
2018-07-31T21:48:14.389Z,2.30
2018-07-31T21:50:42.045Z,2.40
2018-07-31T21:53:10.960Z,2.63
2018-07-31T21:55:38.621Z,2.80
2018-07-31T21:58:06.331Z,2.50
2018-07-31T22:00:39.645Z,2.57
2018-07-31T22:03:07.620Z,2.53
2018-07-31T22:05:35.223Z,2.90
2018-07-31T22:08:02.837Z,2.70
2018-07-31T22:10:30.764Z,2.70
2018-07-31T22:12:58.435Z,2.70
2018-07-31T22:15:26.106Z,3.00
2018-07-31T22:17:53.712Z,2.83
2018-07-31T22:20:21.602Z,2.60
2018-07-31T22:22:49.289Z,2.43
2018-07-31T22:25:17.207Z,2.50
2018-07-31T22:27:44.753Z,3.07
2018-07-31T22:30:12.391Z,3.10
2018-07-31T22:32:40.316Z,2.80
2018-07-31T22:35:07.937Z,2.80
2018-07-31T22:37:35.617Z,2.77
2018-07-31T22:42:36.926Z,2.70
2018-07-31T22:45:04.642Z,2.67
2018-07-31T22:47:32.315Z,2.70
2018-07-31T22:49:59.973Z,2.77
2018-07-31T22:52:27.596Z,2.47
2018-07-31T22:54:55.188Z,2.77
2018-07-31T22:57:22.818Z,2.93
2018-07-31T22:59:50.576Z,2.83
2018-07-31T23:02:18.245Z,2.70
2018-07-31T23:04:45.915Z,3.30
2018-07-31T23:07:13.857Z,3.43
2018-07-31T23:09:43.227Z,3.23
2018-07-31T23:12:10.897Z,3.23
2018-07-31T23:14:38.500Z,2.90
2018-07-31T23:17:06.315Z,3.33
2018-07-31T23:19:33.966Z,2.77
2018-07-31T23:22:01.561Z,3.07
2018-07-31T23:24:29.194Z,3.03
2018-07-31T23:26:57.080Z,2.90
2018-07-31T23:29:24.702Z,2.80
2018-07-31T23:31:52.282Z,3.10
2018-07-31T23:34:19.978Z,3.13
2018-07-31T23:36:47.609Z,3.00
2018-07-31T23:39:15.280Z,2.93
2018-07-31T23:41:42.869Z,3.10
2018-07-31T23:44:10.764Z,3.10
2018-07-31T23:46:38.587Z,2.80
2018-07-31T23:49:06.441Z,2.50
2018-07-31T23:51:34.476Z,2.40
2018-07-31T23:54:02.413Z,2.23
2018-07-31T23:56:30.004Z,3.13
2018-07-31T23:58:57.775Z,2.67
